ePrivacy and GPDR Cookie Consent by Cookie Consent
EmailTwitter


Observations de surface / Québec / CYSC

Régions: Québec | Canada | États-Unis | Europe | France | UK | Ailleurs
Station
Affichage
Infos & localisation pour CYSC | Aide pour décoder les METARs

Observations prises le 2022-06-30 à 22H00 UTC à SHERBROOKE, QB (CYSC)

Etat du ciel: dégagé.

Température: 21.0 Celsius

Point de rosée: 9.0 Celsius

Humidité relative: 46%

Vents: Ouest à 7 km/h ou 4 noeuds.

Pression au niveau moyen de la mer: 102.01 kilopascals.

Calage altimétrique: 101.96 kilopascals ou 30.11 pouces de mercure.

Visibilité horizontale: 9.00 milles terrestres ou 14.40 kilomètres.

Observation METAR:

CYSC 302200Z AUTO 27004KT 9SM CLR 21/09 A3011 RMK SLP201 DENSITY ALT 1500FT=